Time;durP1;ratioP1;P1;durP2;ratioP2;P2;SDS_P1;SDS_P2;PMS_P1;PMS_P2;Temp;Humidity;BMP_temperature;BMP_pressure;BME280_temperature;BME280_humidity;BME280_pressure;Samples;Min_cycle;Max_cycle;Signal;HPM_P1;HPM_P2
2022/03/01 00:00:00;;;;;;;7.45;4.32;;;;;;;;;;5034499;28;20520;-82
2022/03/01 00:02:27;;;;;;;5.97;4.60;;;;;;;;;;5034141;28;20388;-81
2022/03/01 00:04:53;;;;;;;6.28;4.05;;;;;;;;;;5034087;28;20021;-81
2022/03/01 00:07:22;;;;;;;5.20;3.60;;;;;;;;;;5034046;28;20017;-80
2022/03/01 00:10:02;;;;;;;4.88;3.60;;;;;;;;;;5034798;28;20536;-82
2022/03/01 00:12:30;;;;;;;5.03;3.90;;;;;;;;;;5014285;28;20073;-81
2022/03/01 00:14:56;;;;;;;5.95;4.50;;;;;;;;;;5014002;28;20026;-82
2022/03/01 00:17:22;;;;;;;6.05;4.10;;;;;;;;;;5014336;28;20097;-82
2022/03/01 00:19:51;;;;;;;7.55;4.95;;;;;;;;;;5011455;28;20068;-81
2022/03/01 00:22:17;;;;;;;5.50;3.95;;;;;;;;;;5013737;28;20061;-81
2022/03/01 00:24:44;;;;;;;9.77;6.10;;;;;;;;;;5014230;28;20030;-82
2022/03/01 00:27:14;;;;;;;5.85;4.43;;;;;;;;;;5011881;28;20022;-81
2022/03/01 00:29:40;;;;;;;8.15;5.95;;;;;;;;;;5014695;28;20110;-82
2022/03/01 00:32:06;;;;;;;5.30;4.80;;;;;;;;;;4997192;28;20022;-81
2022/03/01 00:34:32;;;;;;;6.90;5.05;;;;;;;;;;5014941;28;20057;-81
2022/03/01 00:36:58;;;;;;;8.52;5.53;;;;;;;;;;5014768;28;20037;-81
2022/03/01 00:39:24;;;;;;;7.88;5.03;;;;;;;;;;5014636;28;20039;-81
2022/03/01 00:41:50;;;;;;;10.02;6.03;;;;;;;;;;5014528;28;20030;-81
2022/03/01 00:44:17;;;;;;;6.88;4.25;;;;;;;;;;5014290;28;20022;-81
2022/03/01 00:46:43;;;;;;;7.22;4.63;;;;;;;;;;5014658;28;20025;-81
2022/03/01 00:49:09;;;;;;;10.85;5.38;;;;;;;;;;5014411;28;20022;-81
2022/03/01 00:51:35;;;;;;;13.90;7.45;;;;;;;;;;5014537;28;20056;-81
2022/03/01 00:54:02;;;;;;;20.05;7.72;;;;;;;;;;4996899;28;20025;-81
2022/03/01 00:56:28;;;;;;;13.32;6.70;;;;;;;;;;5014154;28;20025;-81
2022/03/01 00:58:54;;;;;;;7.18;4.90;;;;;;;;;;4996714;28;20033;-81
2022/03/01 01:01:20;;;;;;;9.57;6.38;;;;;;;;;;5014057;28;20033;-81
2022/03/01 01:03:46;;;;;;;5.90;4.65;;;;;;;;;;5014404;28;20032;-82
2022/03/01 01:06:12;;;;;;;8.50;5.13;;;;;;;;;;5014072;28;20030;-81
2022/03/01 01:08:38;;;;;;;7.53;6.15;;;;;;;;;;4996845;28;20018;-81
2022/03/01 01:11:04;;;;;;;6.63;5.07;;;;;;;;;;5013731;28;20073;-81
2022/03/01 01:13:31;;;;;;;8.93;5.13;;;;;;;;;;5013786;28;20135;-81
2022/03/01 01:15:57;;;;;;;7.43;5.15;;;;;;;;;;5013973;28;20084;-82
2022/03/01 01:18:23;;;;;;;7.45;4.63;;;;;;;;;;5013830;28;20072;-82
2022/03/01 01:20:49;;;;;;;6.07;3.97;;;;;;;;;;5013905;28;20018;-81
2022/03/01 01:23:16;;;;;;;5.30;4.30;;;;;;;;;;5013679;28;20103;-81
2022/03/01 01:25:42;;;;;;;5.38;3.65;;;;;;;;;;5013822;28;20022;-82
2022/03/01 01:28:09;;;;;;;5.72;4.22;;;;;;;;;;5013751;28;20028;-82
2022/03/01 01:30:35;;;;;;;6.43;5.00;;;;;;;;;;5012401;28;20486;-81
2022/03/01 01:33:04;;;;;;;4.78;4.15;;;;;;;;;;5013646;28;20034;-81
2022/03/01 01:35:31;;;;;;;5.40;3.65;;;;;;;;;;5013587;28;20030;-81
2022/03/01 01:37:58;;;;;;;4.40;3.75;;;;;;;;;;5013134;28;20029;-81
2022/03/01 01:40:26;;;;;;;6.07;4.22;;;;;;;;;;5013183;28;20076;-82
2022/03/01 01:42:52;;;;;;;6.18;3.80;;;;;;;;;;5012936;28;20350;-81
2022/03/01 01:45:20;;;;;;;4.63;3.60;;;;;;;;;;5013184;28;20049;-81
2022/03/01 01:47:47;;;;;;;6.10;4.38;;;;;;;;;;5013404;28;20022;-81
2022/03/01 01:50:14;;;;;;;4.60;3.50;;;;;;;;;;5013373;28;20036;-81
2022/03/01 01:52:40;;;;;;;4.65;3.63;;;;;;;;;;5012664;28;20026;-81
2022/03/01 01:55:09;;;;;;;4.35;3.40;;;;;;;;;;5011664;28;20041;-81
2022/03/01 01:57:35;;;;;;;4.13;3.60;;;;;;;;;;5011746;28;20030;-81
2022/03/01 02:00:01;;;;;;;6.18;4.22;;;;;;;;;;5013119;28;20029;-81
2022/03/01 02:02:28;;;;;;;4.75;3.67;;;;;;;;;;4995395;28;20488;-82
2022/03/01 02:04:54;;;;;;;4.95;3.65;;;;;;;;;;4995570;28;20029;-81
2022/03/01 02:07:20;;;;;;;7.72;4.72;;;;;;;;;;5013097;28;20028;-81
2022/03/01 02:09:46;;;;;;;4.60;3.28;;;;;;;;;;4995339;28;20462;-81
2022/03/01 02:12:12;;;;;;;4.60;3.47;;;;;;;;;;5012671;28;20053;-81
2022/03/01 02:14:40;;;;;;;5.38;3.47;;;;;;;;;;5012888;28;20449;-81
2022/03/01 02:17:08;;;;;;;4.65;3.45;;;;;;;;;;5012943;28;20014;-81
2022/03/01 02:19:34;;;;;;;4.93;3.72;;;;;;;;;;5012934;28;20495;-81
2022/03/01 02:22:02;;;;;;;5.65;4.15;;;;;;;;;;4995374;28;20034;-81
2022/03/01 02:24:30;;;;;;;3.53;2.97;;;;;;;;;;5012735;28;20034;-81
2022/03/01 02:27:01;;;;;;;4.78;3.72;;;;;;;;;;5012835;28;20029;-81
2022/03/01 02:29:28;;;;;;;4.93;3.50;;;;;;;;;;5012731;28;20382;-81
2022/03/01 02:31:55;;;;;;;4.10;3.13;;;;;;;;;;5012834;28;20034;-81
2022/03/01 02:34:21;;;;;;;4.00;3.00;;;;;;;;;;5012774;28;20085;-82
2022/03/01 02:36:48;;;;;;;4.15;3.47;;;;;;;;;;5012840;28;20026;-81
2022/03/01 02:39:15;;;;;;;5.20;3.05;;;;;;;;;;5011540;28;20485;-81
2022/03/01 02:41:42;;;;;;;5.05;3.70;;;;;;;;;;5012620;28;20572;-82
2022/03/01 02:44:09;;;;;;;5.50;3.30;;;;;;;;;;5012702;28;20493;-80
2022/03/01 02:46:35;;;;;;;3.60;3.20;;;;;;;;;;5011469;28;20462;-81
2022/03/01 02:49:02;;;;;;;4.45;3.60;;;;;;;;;;4996287;28;20030;-81
2022/03/01 02:51:28;;;;;;;4.93;3.65;;;;;;;;;;5016534;28;20033;-81
2022/03/01 02:53:54;;;;;;;8.95;4.15;;;;;;;;;;5016652;28;20030;-81
2022/03/01 02:56:21;;;;;;;4.70;3.40;;;;;;;;;;5016696;28;20501;-81
2022/03/01 02:58:47;;;;;;;5.85;3.80;;;;;;;;;;4998848;28;20034;-82
2022/03/01 03:01:13;;;;;;;5.65;3.53;;;;;;;;;;5016359;28;20507;-81
2022/03/01 03:03:39;;;;;;;6.47;3.70;;;;;;;;;;5016309;28;20026;-81
2022/03/01 03:06:08;;;;;;;4.95;3.20;;;;;;;;;;4998753;28;20524;-81
2022/03/01 03:08:34;;;;;;;5.32;3.40;;;;;;;;;;5016265;28;20381;-81
2022/03/01 03:11:00;;;;;;;4.85;3.90;;;;;;;;;;5015070;28;20061;-81
2022/03/01 03:13:27;;;;;;;7.35;5.07;;;;;;;;;;5015986;28;20026;-81
2022/03/01 03:15:53;;;;;;;6.30;5.03;;;;;;;;;;5016200;28;20030;-81
2022/03/01 03:18:19;;;;;;;10.00;6.40;;;;;;;;;;5016102;28;20034;-81
2022/03/01 03:20:45;;;;;;;8.02;6.05;;;;;;;;;;5016065;28;20112;-81
2022/03/01 03:23:11;;;;;;;7.22;4.93;;;;;;;;;;5016060;28;20038;-81
2022/03/01 03:25:38;;;;;;;8.70;6.53;;;;;;;;;;5015798;28;20041;-81
2022/03/01 03:28:04;;;;;;;6.90;4.97;;;;;;;;;;5016016;28;20377;-81
2022/03/01 03:30:31;;;;;;;7.25;4.25;;;;;;;;;;5015975;28;20413;-81
2022/03/01 03:32:57;;;;;;;5.82;4.22;;;;;;;;;;4998310;28;20026;-81
2022/03/01 03:35:23;;;;;;;4.85;4.15;;;;;;;;;;5014760;28;20116;-81
2022/03/01 03:37:49;;;;;;;15.52;6.38;;;;;;;;;;5015805;28;20126;-81
2022/03/01 03:40:16;;;;;;;7.07;4.90;;;;;;;;;;5015813;28;20037;-81
2022/03/01 03:42:44;;;;;;;5.50;4.85;;;;;;;;;;5015531;28;20048;-81
2022/03/01 03:45:13;;;;;;;6.78;4.53;;;;;;;;;;5015744;28;20439;-80
2022/03/01 03:47:40;;;;;;;5.30;4.03;;;;;;;;;;5015564;28;20473;-81
2022/03/01 03:50:07;;;;;;;7.65;4.90;;;;;;;;;;5015534;28;20037;-81
2022/03/01 03:52:33;;;;;;;5.97;4.10;;;;;;;;;;4998240;28;20515;-82
2022/03/01 03:54:59;;;;;;;6.82;4.97;;;;;;;;;;5015485;28;20026;-81
2022/03/01 03:57:27;;;;;;;5.78;4.18;;;;;;;;;;5015493;28;20097;-81
2022/03/01 03:59:54;;;;;;;5.30;3.95;;;;;;;;;;5014863;28;20050;-81
2022/03/01 04:02:20;;;;;;;6.45;4.32;;;;;;;;;;5015353;28;20109;-81
2022/03/01 04:04:46;;;;;;;5.88;4.50;;;;;;;;;;5015215;28;20029;-80
2022/03/01 04:10:29;;;;;;;7.45;4.60;;;;;;;;;;5002969;28;20030;-81
2022/03/01 04:12:58;;;;;;;7.88;3.95;;;;;;;;;;5014817;28;20124;-80
2022/03/01 04:15:24;;;;;;;5.20;4.50;;;;;;;;;;5015035;28;20025;-81
2022/03/01 04:17:50;;;;;;;6.78;4.93;;;;;;;;;;5014956;28;20160;-81
2022/03/01 04:20:18;;;;;;;6.70;4.82;;;;;;;;;;4997324;28;20057;-81
2022/03/01 04:22:45;;;;;;;6.85;5.47;;;;;;;;;;5014897;28;20022;-81
2022/03/01 04:25:11;;;;;;;5.75;5.00;;;;;;;;;;5014743;28;20033;-80
2022/03/01 04:27:38;;;;;;;8.52;6.32;;;;;;;;;;4997368;28;20030;-81
2022/03/01 04:30:05;;;;;;;8.10;6.30;;;;;;;;;;5014600;28;20018;-81
2022/03/01 04:32:31;;;;;;;8.05;5.70;;;;;;;;;;5014695;28;20025;-81
2022/03/01 04:34:57;;;;;;;5.75;4.57;;;;;;;;;;4997121;28;20026;-82
2022/03/01 04:37:24;;;;;;;7.55;5.60;;;;;;;;;;5014625;28;20030;-81
2022/03/01 04:39:50;;;;;;;7.85;5.82;;;;;;;;;;5014422;28;20052;-81
2022/03/01 04:42:16;;;;;;;11.88;6.82;;;;;;;;;;5014186;28;20026;-81
2022/03/01 04:44:43;;;;;;;12.00;6.50;;;;;;;;;;5014302;28;20425;-82
2022/03/01 04:47:10;;;;;;;8.32;5.82;;;;;;;;;;5014446;28;20401;-81
2022/03/01 04:49:36;;;;;;;9.93;6.97;;;;;;;;;;5014485;28;20026;-81
2022/03/01 04:52:02;;;;;;;7.43;5.75;;;;;;;;;;5014024;28;20504;-80
2022/03/01 04:54:28;;;;;;;9.95;7.00;;;;;;;;;;5014200;28;20041;-81
2022/03/01 04:56:55;;;;;;;12.90;7.75;;;;;;;;;;4996676;28;20036;-81
2022/03/01 04:59:21;;;;;;;13.95;9.07;;;;;;;;;;5013674;28;20026;-81
2022/03/01 05:01:47;;;;;;;8.30;5.65;;;;;;;;;;5014152;28;20026;-81
2022/03/01 05:04:13;;;;;;;12.18;8.48;;;;;;;;;;5014038;28;20022;-81
2022/03/01 05:06:39;;;;;;;8.45;6.30;;;;;;;;;;4996669;28;20026;-81
2022/03/01 05:09:06;;;;;;;10.95;7.43;;;;;;;;;;5014235;28;20377;-80
2022/03/01 05:11:32;;;;;;;10.77;7.65;;;;;;;;;;5013015;28;20532;-81
2022/03/01 05:13:58;;;;;;;9.55;7.00;;;;;;;;;;5014124;28;20030;-80
2022/03/01 05:16:24;;;;;;;15.25;10.73;;;;;;;;;;5013905;28;20466;-81
2022/03/01 05:18:50;;;;;;;24.35;16.98;;;;;;;;;;5014085;28;20028;-81
2022/03/01 05:21:16;;;;;;;14.30;10.23;;;;;;;;;;5013693;28;20072;-81
2022/03/01 05:23:43;;;;;;;20.90;14.13;;;;;;;;;;5013993;28;20058;-81
2022/03/01 05:26:09;;;;;;;36.25;22.20;;;;;;;;;;5013951;28;20543;-80
2022/03/01 05:28:35;;;;;;;22.60;14.40;;;;;;;;;;5013911;28;20025;-80
2022/03/01 05:31:03;;;;;;;13.35;9.55;;;;;;;;;;5013897;28;20026;-80
2022/03/01 05:33:30;;;;;;;34.80;21.38;;;;;;;;;;4995935;28;20022;-80
2022/03/01 05:35:58;;;;;;;15.93;11.80;;;;;;;;;;5013571;28;20029;-80
2022/03/01 05:38:28;;;;;;;15.23;10.20;;;;;;;;;;4995376;28;20033;-82
2022/03/01 05:40:54;;;;;;;15.95;10.50;;;;;;;;;;5013385;28;20111;-80
2022/03/01 05:43:20;;;;;;;11.13;8.73;;;;;;;;;;5012130;28;20026;-79
2022/03/01 05:45:46;;;;;;;13.45;8.90;;;;;;;;;;5013511;28;20018;-81
2022/03/01 05:48:12;;;;;;;16.50;11.35;;;;;;;;;;5012970;28;20101;-80
2022/03/01 05:50:38;;;;;;;21.70;14.07;;;;;;;;;;5013312;28;20504;-79
2022/03/01 05:53:05;;;;;;;14.52;9.23;;;;;;;;;;5013353;28;20044;-79
2022/03/01 05:55:31;;;;;;;11.40;7.40;;;;;;;;;;5013171;28;20477;-79
2022/03/01 05:57:57;;;;;;;8.25;6.05;;;;;;;;;;5013266;28;20037;-79
2022/03/01 06:00:24;;;;;;;8.98;5.20;;;;;;;;;;5013315;28;20046;-80
2022/03/01 06:02:50;;;;;;;16.13;9.30;;;;;;;;;;5013212;28;20469;-81
2022/03/01 06:05:17;;;;;;;12.98;9.05;;;;;;;;;;4995481;28;20068;-80
2022/03/01 06:07:43;;;;;;;14.50;9.95;;;;;;;;;;5013021;28;20030;-80
2022/03/01 06:10:10;;;;;;;11.55;7.57;;;;;;;;;;5013235;28;20476;-80
2022/03/01 06:12:36;;;;;;;21.55;13.57;;;;;;;;;;5012895;28;20050;-81
2022/03/01 06:15:02;;;;;;;23.27;15.30;;;;;;;;;;5013289;28;20076;-81
2022/03/01 06:17:28;;;;;;;34.20;17.80;;;;;;;;;;4986719;28;20096;-81
2022/03/01 06:19:55;;;;;;;30.92;16.40;;;;;;;;;;4973513;28;20019;-81
2022/03/01 06:22:23;;;;;;;41.22;23.25;;;;;;;;;;4973194;28;20113;-82
2022/03/01 06:24:49;;;;;;;42.58;21.83;;;;;;;;;;4971512;28;20485;-80
2022/03/01 06:27:15;;;;;;;32.00;21.05;;;;;;;;;;5012429;28;20480;-81
2022/03/01 06:29:42;;;;;;;24.08;14.98;;;;;;;;;;4991485;28;20026;-80
2022/03/01 06:32:10;;;;;;;21.85;15.10;;;;;;;;;;5012489;28;20124;-83
2022/03/01 06:34:36;;;;;;;20.42;14.20;;;;;;;;;;5005150;28;20025;-81
2022/03/01 06:37:02;;;;;;;22.00;15.43;;;;;;;;;;4992780;28;20038;-81
2022/03/01 06:39:29;;;;;;;16.67;12.57;;;;;;;;;;4988007;28;20366;-81
2022/03/01 06:41:55;;;;;;;35.78;11.85;;;;;;;;;;4991492;28;20026;-79
2022/03/01 06:44:21;;;;;;;16.30;9.57;;;;;;;;;;4994202;28;20053;-79
2022/03/01 06:46:47;;;;;;;25.85;17.88;;;;;;;;;;4984000;28;20068;-81
2022/03/01 06:49:13;;;;;;;50.65;34.35;;;;;;;;;;4988034;28;20776;-80
2022/03/01 06:51:39;;;;;;;35.90;26.83;;;;;;;;;;4993710;28;20033;-82
2022/03/01 06:54:06;;;;;;;52.15;36.38;;;;;;;;;;5011127;28;20025;-81
2022/03/01 06:56:32;;;;;;;27.98;18.33;;;;;;;;;;5011533;28;20054;-83
2022/03/01 06:58:58;;;;;;;29.73;18.88;;;;;;;;;;5011979;28;20022;-83
2022/03/01 07:01:24;;;;;;;25.23;17.95;;;;;;;;;;5011137;28;20125;-81
2022/03/01 07:03:50;;;;;;;25.25;15.50;;;;;;;;;;5011673;28;20033;-83
2022/03/01 07:06:16;;;;;;;25.67;17.23;;;;;;;;;;5010856;28;20077;-84
2022/03/01 07:08:44;;;;;;;22.52;16.15;;;;;;;;;;5009557;28;20577;-84
2022/03/01 07:11:10;;;;;;;17.88;10.88;;;;;;;;;;4992809;28;20446;-82
2022/03/01 07:13:36;;;;;;;14.55;10.73;;;;;;;;;;5011195;28;20034;-81
2022/03/01 07:16:05;;;;;;;17.45;12.82;;;;;;;;;;5010892;28;20072;-81
2022/03/01 07:18:31;;;;;;;18.10;14.00;;;;;;;;;;5010686;28;20022;-81
2022/03/01 07:21:00;;;;;;;27.17;19.50;;;;;;;;;;5010627;28;20044;-82
2022/03/01 07:23:29;;;;;;;27.73;19.63;;;;;;;;;;5010937;28;20030;-81
2022/03/01 07:25:55;;;;;;;37.47;23.20;;;;;;;;;;5011110;28;20030;-83
2022/03/01 07:28:22;;;;;;;23.77;17.05;;;;;;;;;;4990129;28;20125;-80
2022/03/01 07:30:48;;;;;;;24.48;17.42;;;;;;;;;;5007025;28;20026;-80
2022/03/01 07:33:14;;;;;;;24.10;19.23;;;;;;;;;;4974149;28;20371;-80
2022/03/01 07:35:40;;;;;;;45.10;27.85;;;;;;;;;;4993048;28;20482;-79
2022/03/01 07:38:06;;;;;;;45.05;29.95;;;;;;;;;;4994793;28;20326;-82
2022/03/01 07:40:32;;;;;;;35.70;24.23;;;;;;;;;;4994712;28;20509;-82
2022/03/01 07:42:58;;;;;;;29.58;22.13;;;;;;;;;;4977206;28;20136;-81
2022/03/01 07:45:25;;;;;;;34.92;22.98;;;;;;;;;;4994838;28;20046;-83
2022/03/01 07:47:52;;;;;;;22.02;16.00;;;;;;;;;;4994497;28;20027;-80
2022/03/01 07:50:18;;;;;;;22.00;17.02;;;;;;;;;;4987218;28;20037;-81
2022/03/01 07:52:44;;;;;;;34.47;22.90;;;;;;;;;;5013531;28;20106;-81
2022/03/01 07:55:14;;;;;;;12.07;9.57;;;;;;;;;;5014315;28;20038;-80
2022/03/01 07:57:40;;;;;;;21.90;15.90;;;;;;;;;;5013587;28;20087;-83
2022/03/01 08:00:09;;;;;;;14.30;12.68;;;;;;;;;;5013523;28;20428;-80
2022/03/01 08:02:36;;;;;;;12.88;9.43;;;;;;;;;;5013903;28;20061;-81
2022/03/01 08:05:03;;;;;;;13.20;8.90;;;;;;;;;;5013892;28;20045;-80
2022/03/01 08:07:29;;;;;;;24.75;16.58;;;;;;;;;;5014238;28;20108;-80
2022/03/01 08:09:55;;;;;;;43.80;30.52;;;;;;;;;;5013144;28;20118;-84
2022/03/01 08:12:21;;;;;;;24.88;19.35;;;;;;;;;;5015308;28;20052;-83
2022/03/01 08:14:47;;;;;;;24.42;16.58;;;;;;;;;;5013710;28;20026;-82
2022/03/01 08:17:13;;;;;;;50.13;26.95;;;;;;;;;;4996123;28;20022;-77
2022/03/01 08:19:40;;;;;;;30.95;20.17;;;;;;;;;;5013701;28;20026;-80
2022/03/01 08:22:06;;;;;;;22.75;14.30;;;;;;;;;;5013566;28;20034;-73
2022/03/01 08:24:32;;;;;;;32.78;18.15;;;;;;;;;;5013265;28;20021;-74
2022/03/01 08:26:59;;;;;;;33.92;17.10;;;;;;;;;;5013552;28;20087;-74
2022/03/01 08:29:26;;;;;;;26.60;15.52;;;;;;;;;;5009929;28;20393;-73
2022/03/01 08:31:52;;;;;;;28.25;17.63;;;;;;;;;;4995016;28;20061;-75
2022/03/01 08:34:18;;;;;;;42.22;22.27;;;;;;;;;;5013197;28;20483;-73
2022/03/01 08:36:45;;;;;;;28.25;16.55;;;;;;;;;;5012226;28;20061;-73
2022/03/01 08:39:11;;;;;;;34.63;17.40;;;;;;;;;;5012858;28;20401;-73
2022/03/01 08:41:37;;;;;;;22.00;12.35;;;;;;;;;;4995398;28;20034;-73
2022/03/01 08:44:04;;;;;;;12.02;9.88;;;;;;;;;;5012671;28;20070;-79
2022/03/01 08:46:30;;;;;;;32.38;16.40;;;;;;;;;;4995291;28;20022;-82
2022/03/01 08:49:02;;;;;;;85.47;49.78;;;;;;;;;;5012266;28;20141;-80
2022/03/01 08:51:28;;;;;;;44.40;27.17;;;;;;;;;;5011642;28;20036;-76
2022/03/01 08:53:54;;;;;;;10.02;7.88;;;;;;;;;;5012223;28;20022;-82
2022/03/01 08:59:15;;;;;;;12.95;9.55;;;;;;;;;;5012550;28;20641;-83
2022/03/01 09:01:51;;;;;;;15.73;9.52;;;;;;;;;;4993367;28;20060;-82
2022/03/01 09:04:17;;;;;;;10.73;8.43;;;;;;;;;;4993032;28;20117;-84
2022/03/01 09:06:43;;;;;;;111.05;37.35;;;;;;;;;;5012191;28;20033;-79
2022/03/01 09:09:09;;;;;;;83.25;30.60;;;;;;;;;;4994364;28;20481;-79
2022/03/01 09:11:35;;;;;;;46.33;17.80;;;;;;;;;;5000850;28;20107;-76
2022/03/01 09:14:01;;;;;;;39.88;15.07;;;;;;;;;;5012102;28;20041;-77
2022/03/01 09:16:28;;;;;;;9.43;7.10;;;;;;;;;;4994226;28;20485;-76
2022/03/01 09:18:54;;;;;;;16.42;13.68;;;;;;;;;;5012346;28;20030;-78
2022/03/01 09:21:20;;;;;;;10.95;8.45;;;;;;;;;;5012258;28;20026;-78
2022/03/01 09:23:46;;;;;;;11.98;8.50;;;;;;;;;;5012531;28;20366;-79
2022/03/01 09:26:13;;;;;;;8.98;7.28;;;;;;;;;;5012495;28;20034;-83
2022/03/01 09:28:39;;;;;;;7.75;6.30;;;;;;;;;;5003267;28;20071;-82
2022/03/01 09:31:05;;;;;;;6.65;5.53;;;;;;;;;;5031850;28;20428;-82
2022/03/01 09:33:31;;;;;;;7.13;6.25;;;;;;;;;;5031807;28;20028;-81
2022/03/01 09:35:57;;;;;;;9.65;7.30;;;;;;;;;;5031295;28;20432;-82
2022/03/01 09:38:24;;;;;;;13.45;9.27;;;;;;;;;;5015536;28;20054;-81
2022/03/01 09:40:50;;;;;;;10.57;7.82;;;;;;;;;;4994764;28;20030;-84
2022/03/01 09:43:17;;;;;;;10.60;7.82;;;;;;;;;;5011905;28;20036;-81
2022/03/01 09:45:44;;;;;;;14.93;11.10;;;;;;;;;;5012600;28;20101;-82
2022/03/01 09:48:13;;;;;;;9.05;7.20;;;;;;;;;;4993800;28;20029;-82
2022/03/01 09:50:40;;;;;;;7.68;6.40;;;;;;;;;;5011635;28;20037;-84
2022/03/01 09:53:12;;;;;;;9.95;7.40;;;;;;;;;;4992985;28;20377;-82
2022/03/01 09:55:40;;;;;;;6.57;5.70;;;;;;;;;;4979021;28;20156;-81
2022/03/01 09:58:07;;;;;;;7.90;6.35;;;;;;;;;;5026375;28;20042;-82
2022/03/01 10:00:36;;;;;;;10.43;9.25;;;;;;;;;;5009787;28;20026;-83
2022/03/01 10:03:02;;;;;;;8.05;6.25;;;;;;;;;;5025335;28;20029;-81
2022/03/01 10:05:34;;;;;;;7.00;5.57;;;;;;;;;;5028551;28;20053;-82
2022/03/01 10:08:20;;;;;;;8.43;6.80;;;;;;;;;;5029477;28;20021;-83
2022/03/01 10:10:51;;;;;;;7.30;6.32;;;;;;;;;;5025654;28;20092;-83
2022/03/01 10:13:43;;;;;;;6.45;4.90;;;;;;;;;;5012625;28;20029;-79
2022/03/01 10:16:13;;;;;;;4.93;3.80;;;;;;;;;;5025098;28;20497;-79
2022/03/01 10:18:41;;;;;;;8.27;7.47;;;;;;;;;;5024855;28;20473;-81
2022/03/01 10:21:13;;;;;;;5.43;4.65;;;;;;;;;;5029971;28;20080;-81
2022/03/01 10:23:52;;;;;;;8.80;7.43;;;;;;;;;;5030290;28;20049;-82
2022/03/01 10:26:20;;;;;;;7.30;6.43;;;;;;;;;;5018349;28;20029;-80
2022/03/01 10:28:47;;;;;;;4.53;3.88;;;;;;;;;;5011166;28;20022;-81
2022/03/01 10:31:25;;;;;;;6.10;4.03;;;;;;;;;;5010596;28;20401;-80
2022/03/01 10:33:55;;;;;;;7.28;5.07;;;;;;;;;;5010920;28;20374;-81
2022/03/01 10:36:40;;;;;;;8.35;7.32;;;;;;;;;;5010695;28;20077;-81
2022/03/01 10:39:11;;;;;;;8.23;7.18;;;;;;;;;;5009776;28;20014;-81
2022/03/01 10:41:38;;;;;;;8.15;6.00;;;;;;;;;;5010317;28;20037;-81
2022/03/01 10:44:07;;;;;;;8.32;5.90;;;;;;;;;;5011825;28;20022;-80
2022/03/01 10:46:52;;;;;;;6.22;4.70;;;;;;;;;;4993801;28;20840;-78
2022/03/01 10:49:21;;;;;;;6.07;5.00;;;;;;;;;;5010952;28;20367;-79
2022/03/01 10:51:48;;;;;;;6.38;5.10;;;;;;;;;;5011370;28;20438;-82
2022/03/01 10:54:23;;;;;;;5.38;4.88;;;;;;;;;;5011777;28;20037;-82
2022/03/01 10:56:51;;;;;;;5.45;3.83;;;;;;;;;;5015050;28;20029;-81
2022/03/01 10:59:17;;;;;;;5.60;4.20;;;;;;;;;;5031129;28;20222;-80
2022/03/01 11:01:43;;;;;;;16.48;12.20;;;;;;;;;;5031251;28;20116;-81
2022/03/01 11:04:09;;;;;;;7.68;6.03;;;;;;;;;;5031521;28;20022;-80
2022/03/01 11:06:36;;;;;;;7.18;5.18;;;;;;;;;;5031735;28;20026;-82
2022/03/01 11:09:02;;;;;;;7.30;4.95;;;;;;;;;;5027873;28;20026;-80
2022/03/01 11:11:33;;;;;;;20.42;12.35;;;;;;;;;;5013937;28;20081;-81
2022/03/01 11:13:59;;;;;;;5.35;4.85;;;;;;;;;;5008191;28;20496;-79
2022/03/01 11:16:44;;;;;;;8.63;6.10;;;;;;;;;;5011637;28;20026;-80
2022/03/01 11:19:29;;;;;;;4.15;3.30;;;;;;;;;;5014362;28;20500;-79
2022/03/01 11:21:57;;;;;;;4.70;3.38;;;;;;;;;;5014732;28;20034;-80
2022/03/01 11:24:24;;;;;;;3.97;3.42;;;;;;;;;;5010682;28;20072;-80
2022/03/01 11:26:50;;;;;;;5.90;4.47;;;;;;;;;;5009308;28;20030;-79
2022/03/01 11:29:17;;;;;;;10.27;6.95;;;;;;;;;;5008018;28;20018;-79
2022/03/01 11:31:44;;;;;;;15.27;11.98;;;;;;;;;;5013874;28;20026;-78
2022/03/01 11:34:17;;;;;;;19.83;13.40;;;;;;;;;;5014420;28;20101;-80
2022/03/01 11:36:52;;;;;;;10.68;7.47;;;;;;;;;;5014398;28;20046;-79
2022/03/01 11:39:41;;;;;;;10.68;7.72;;;;;;;;;;5013547;28;20034;-81
2022/03/01 11:42:08;;;;;;;10.82;8.35;;;;;;;;;;4992189;28;20133;-78
2022/03/01 11:44:36;;;;;;;6.80;5.63;;;;;;;;;;4993761;28;20390;-81
2022/03/01 11:47:06;;;;;;;7.65;5.43;;;;;;;;;;4987615;28;20018;-80
2022/03/01 11:49:39;;;;;;;6.88;5.18;;;;;;;;;;5004156;28;20106;-81
2022/03/01 11:52:18;;;;;;;5.50;5.00;;;;;;;;;;4994183;28;20022;-81
2022/03/01 11:54:46;;;;;;;7.13;5.22;;;;;;;;;;4983944;28;20396;-82
2022/03/01 11:57:16;;;;;;;6.57;5.57;;;;;;;;;;4988752;28;20030;-81
2022/03/01 11:59:49;;;;;;;6.63;5.65;;;;;;;;;;4999970;28;20037;-78
2022/03/01 12:02:16;;;;;;;10.45;8.63;;;;;;;;;;4988579;28;20038;-82
2022/03/01 12:04:55;;;;;;;10.45;7.72;;;;;;;;;;4996032;28;20037;-81
2022/03/01 12:07:40;;;;;;;12.18;9.40;;;;;;;;;;5013651;28;20083;-79
2022/03/01 12:10:20;;;;;;;7.70;6.43;;;;;;;;;;5013218;28;20026;-81
2022/03/01 12:12:47;;;;;;;8.75;7.53;;;;;;;;;;5002752;28;20046;-78
2022/03/01 12:15:13;;;;;;;10.77;9.20;;;;;;;;;;5002585;28;20033;-78
2022/03/01 12:17:44;;;;;;;21.35;16.80;;;;;;;;;;4997106;28;20045;-80
2022/03/01 12:20:14;;;;;;;10.98;9.85;;;;;;;;;;4978282;28;20494;-82
2022/03/01 12:22:59;;;;;;;15.57;12.80;;;;;;;;;;4975639;28;20042;-81
2022/03/01 12:25:25;;;;;;;;;;;;;;;;;;4992489;28;20099;-80
2022/03/01 12:27:52;;;;;;;12.45;10.23;;;;;;;;;;5003730;28;19914;-78
2022/03/01 12:30:25;;;;;;;11.80;8.68;;;;;;;;;;5003492;28;20498;-81
2022/03/01 12:32:55;;;;;;;12.68;10.90;;;;;;;;;;4994895;28;20037;-78
2022/03/01 12:35:23;;;;;;;12.13;9.73;;;;;;;;;;4997461;28;20026;-80
2022/03/01 12:37:50;;;;;;;10.73;8.93;;;;;;;;;;4993762;28;20034;-80
2022/03/01 12:40:26;;;;;;;12.07;10.07;;;;;;;;;;4979849;28;20030;-80
2022/03/01 12:43:18;;;;;;;39.63;29.70;;;;;;;;;;4998125;28;20533;-81
2022/03/01 12:45:46;;;;;;;22.80;17.85;;;;;;;;;;4992050;28;20078;-84
2022/03/01 12:48:13;;;;;;;29.08;25.77;;;;;;;;;;4999811;28;20105;-80
2022/03/01 12:50:58;;;;;;;28.35;22.02;;;;;;;;;;5002521;28;20041;-80
2022/03/01 12:53:24;;;;;;;17.88;15.30;;;;;;;;;;5000696;28;20026;-80
2022/03/01 12:55:53;;;;;;;12.02;9.73;;;;;;;;;;5001847;28;20025;-79
2022/03/01 12:58:21;;;;;;;15.45;11.95;;;;;;;;;;4998091;28;20046;-80
2022/03/01 13:00:48;;;;;;;16.45;12.70;;;;;;;;;;5001555;28;20414;-80
2022/03/01 13:03:24;;;;;;;10.50;8.10;;;;;;;;;;4996869;28;20114;-77
2022/03/01 13:05:50;;;;;;;8.38;7.53;;;;;;;;;;4984045;28;20053;-77
2022/03/01 13:08:20;;;;;;;11.35;8.95;;;;;;;;;;5000763;28;20065;-78
2022/03/01 13:10:47;;;;;;;11.07;9.38;;;;;;;;;;4993256;28;20034;-77
2022/03/01 13:13:14;;;;;;;13.38;10.15;;;;;;;;;;5003843;28;20042;-77
2022/03/01 13:15:46;;;;;;;10.68;8.77;;;;;;;;;;5014612;28;20017;-79
2022/03/01 13:18:12;;;;;;;12.27;8.73;;;;;;;;;;5002722;28;20034;-78
2022/03/01 13:20:39;;;;;;;9.05;7.45;;;;;;;;;;5006433;28;20041;-80
2022/03/01 13:23:06;;;;;;;9.55;6.90;;;;;;;;;;4994005;28;20042;-82
2022/03/01 13:25:39;;;;;;;10.45;7.85;;;;;;;;;;5012042;28;20052;-81
2022/03/01 13:28:05;;;;;;;10.93;8.75;;;;;;;;;;5013977;28;20025;-80
2022/03/01 13:30:32;;;;;;;13.80;10.13;;;;;;;;;;5016036;28;20516;-81
2022/03/01 13:33:11;;;;;;;13.93;11.32;;;;;;;;;;4994849;28;20037;-82
2022/03/01 13:35:38;;;;;;;17.92;14.85;;;;;;;;;;5011058;28;20038;-81
2022/03/01 13:38:06;;;;;;;15.65;12.93;;;;;;;;;;4994743;28;20038;-79
2022/03/01 13:40:33;;;;;;;11.00;8.77;;;;;;;;;;5002751;28;20385;-82
2022/03/01 13:43:25;;;;;;;14.65;11.65;;;;;;;;;;5005326;28;20111;-80
2022/03/01 13:46:10;;;;;;;18.67;14.70;;;;;;;;;;5015766;28;20029;-82
2022/03/01 13:48:36;;;;;;;14.15;11.05;;;;;;;;;;5013087;28;20121;-81
2022/03/01 13:51:21;;;;;;;21.95;17.90;;;;;;;;;;5012440;28;20535;-80
2022/03/01 13:53:48;;;;;;;;;;;;;;;;;;5025168;28;20110;-78
2022/03/01 13:56:14;;;;;;;19.80;15.80;;;;;;;;;;5019040;28;19911;-77
2022/03/01 13:58:41;;;;;;;16.75;12.73;;;;;;;;;;5011295;28;20074;-80
2022/03/01 14:01:10;;;;;;;12.88;11.23;;;;;;;;;;5004735;28;20030;-82
2022/03/01 14:03:36;;;;;;;20.27;16.15;;;;;;;;;;4994123;28;20129;-78
2022/03/01 14:06:07;;;;;;;13.88;11.68;;;;;;;;;;4981839;28;20034;-79
2022/03/01 14:08:35;;;;;;;19.60;15.30;;;;;;;;;;5002538;28;20038;-81
2022/03/01 14:11:02;;;;;;;16.88;12.07;;;;;;;;;;5028917;28;20022;-81
2022/03/01 14:13:33;;;;;;;14.55;11.30;;;;;;;;;;4995626;28;20030;-83
2022/03/01 14:16:09;;;;;;;11.50;10.02;;;;;;;;;;4993965;28;20026;-79
2022/03/01 14:18:38;;;;;;;12.65;11.25;;;;;;;;;;4999739;28;20030;-79
2022/03/01 14:21:04;;;;;;;12.43;9.50;;;;;;;;;;5007066;28;20020;-78
2022/03/01 14:23:31;;;;;;;15.80;12.27;;;;;;;;;;5012712;28;20034;-81
2022/03/01 14:25:58;;;;;;;16.05;13.00;;;;;;;;;;5004872;28;20105;-80
2022/03/01 14:28:24;;;;;;;15.10;12.55;;;;;;;;;;5013213;28;20092;-79
2022/03/01 14:30:50;;;;;;;18.95;14.80;;;;;;;;;;5019988;28;20021;-79
2022/03/01 14:33:17;;;;;;;22.38;16.70;;;;;;;;;;5010622;28;20026;-78
2022/03/01 14:35:43;;;;;;;21.15;15.63;;;;;;;;;;5003442;28;20121;-81
2022/03/01 14:38:09;;;;;;;21.70;15.77;;;;;;;;;;4992307;28;20105;-82
2022/03/01 14:40:36;;;;;;;23.88;18.92;;;;;;;;;;4992694;28;20033;-79
2022/03/01 14:43:03;;;;;;;22.85;17.48;;;;;;;;;;5009290;28;20065;-80